sensor_id;sensor_type;location;lat;lon;timestamp;pressure;altitude;pressure_sealevel;temperature;humidity
48622;BME280;34421;48.944;9.460;2024-03-02T00:02:06;97382.56;;;5.86;84.66
48622;BME280;34421;48.944;9.460;2024-03-02T00:04:32;97386.22;;;5.85;84.35
48622;BME280;34421;48.944;9.460;2024-03-02T00:06:57;97382.34;;;5.87;84.90
48622;BME280;34421;48.944;9.460;2024-03-02T00:09:22;97390.69;;;5.91;84.58
48622;BME280;34421;48.944;9.460;2024-03-02T00:11:48;97383.16;;;5.94;85.08
48622;BME280;34421;48.944;9.460;2024-03-02T00:14:14;97376.47;;;5.92;84.82
48622;BME280;34421;48.944;9.460;2024-03-02T00:16:40;97380.13;;;5.98;85.03
48622;BME280;34421;48.944;9.460;2024-03-02T00:19:06;97378.31;;;5.98;83.96
48622;BME280;34421;48.944;9.460;2024-03-02T00:21:34;97371.59;;;5.96;83.98
48622;BME280;34421;48.944;9.460;2024-03-02T00:24:01;97373.00;;;5.91;84.24
48622;BME280;34421;48.944;9.460;2024-03-02T00:26:32;97380.94;;;5.98;85.00
48622;BME280;34421;48.944;9.460;2024-03-02T00:28:57;97371.78;;;6.01;84.44
48622;BME280;34421;48.944;9.460;2024-03-02T00:31:22;97379.28;;;6.04;84.56
48622;BME280;34421;48.944;9.460;2024-03-02T00:33:48;97377.91;;;6.01;84.00
48622;BME280;34421;48.944;9.460;2024-03-02T00:36:16;97383.19;;;6.01;83.48
48622;BME280;34421;48.944;9.460;2024-03-02T00:38:49;97386.22;;;6.05;83.46
48622;BME280;34421;48.944;9.460;2024-03-02T00:41:19;97390.28;;;6.07;83.95
48622;BME280;34421;48.944;9.460;2024-03-02T00:43:52;97395.97;;;6.04;83.36
48622;BME280;34421;48.944;9.460;2024-03-02T00:46:21;97393.53;;;6.03;83.29
48622;BME280;34421;48.944;9.460;2024-03-02T00:48:55;97394.34;;;6.03;82.45
48622;BME280;34421;48.944;9.460;2024-03-02T00:51:22;97394.56;;;6.02;83.37
48622;BME280;34421;48.944;9.460;2024-03-02T00:53:48;97394.78;;;5.93;82.94
48622;BME280;34421;48.944;9.460;2024-03-02T00:56:14;97390.31;;;5.81;83.52
48622;BME280;34421;48.944;9.460;2024-03-02T00:58:39;97396.41;;;5.68;83.90
48622;BME280;34421;48.944;9.460;2024-03-02T01:01:05;97390.97;;;5.56;84.32
48622;BME280;34421;48.944;9.460;2024-03-02T01:03:32;97390.34;;;5.54;84.29
48622;BME280;34421;48.944;9.460;2024-03-02T01:05:57;97393.19;;;5.59;84.22
48622;BME280;34421;48.944;9.460;2024-03-02T01:08:23;97393.16;;;5.66;84.68
48622;BME280;34421;48.944;9.460;2024-03-02T01:10:49;97393.75;;;5.68;83.59
48622;BME280;34421;48.944;9.460;2024-03-02T01:13:14;97388.47;;;5.68;83.50
48622;BME280;34421;48.944;9.460;2024-03-02T01:15:39;97384.63;;;5.64;83.57
48622;BME280;34421;48.944;9.460;2024-03-02T01:18:05;97389.72;;;5.65;84.12
48622;BME280;34421;48.944;9.460;2024-03-02T01:20:30;97388.28;;;5.69;83.76
48622;BME280;34421;48.944;9.460;2024-03-02T01:22:56;97396.41;;;5.68;82.80
48622;BME280;34421;48.944;9.460;2024-03-02T01:25:21;97389.31;;;5.68;83.86
48622;BME280;34421;48.944;9.460;2024-03-02T01:27:46;97387.25;;;5.70;82.74
48622;BME280;34421;48.944;9.460;2024-03-02T01:30:12;97389.91;;;5.70;83.78
48622;BME280;34421;48.944;9.460;2024-03-02T01:32:38;97384.44;;;5.72;83.77
48622;BME280;34421;48.944;9.460;2024-03-02T01:35:04;97381.56;;;5.74;83.61
48622;BME280;34421;48.944;9.460;2024-03-02T01:37:29;97385.84;;;5.75;83.22
48622;BME280;34421;48.944;9.460;2024-03-02T01:39:55;97391.72;;;5.70;82.38
48622;BME280;34421;48.944;9.460;2024-03-02T01:42:20;97391.16;;;5.55;82.84
48622;BME280;34421;48.944;9.460;2024-03-02T01:44:45;97393.19;;;5.46;83.07
48622;BME280;34421;48.944;9.460;2024-03-02T01:47:11;97391.97;;;5.42;83.53
48622;BME280;34421;48.944;9.460;2024-03-02T01:49:37;97391.16;;;5.48;84.49
48622;BME280;34421;48.944;9.460;2024-03-02T01:52:04;97386.28;;;5.45;84.38
48622;BME280;34421;48.944;9.460;2024-03-02T01:54:29;97392.56;;;5.44;83.67
48622;BME280;34421;48.944;9.460;2024-03-02T01:56:54;97389.13;;;5.43;84.49
48622;BME280;34421;48.944;9.460;2024-03-02T01:59:20;97385.06;;;5.41;84.71
48622;BME280;34421;48.944;9.460;2024-03-02T02:01:45;97380.00;;;5.39;84.98
48622;BME280;34421;48.944;9.460;2024-03-02T02:04:10;97387.09;;;5.45;84.36
48622;BME280;34421;48.944;9.460;2024-03-02T02:06:36;97391.16;;;5.55;84.73
48622;BME280;34421;48.944;9.460;2024-03-02T02:09:01;97392.34;;;5.59;84.83
48622;BME280;34421;48.944;9.460;2024-03-02T02:11:27;97380.56;;;5.61;83.99
48622;BME280;34421;48.944;9.460;2024-03-02T02:13:52;97377.50;;;5.64;84.50
48622;BME280;34421;48.944;9.460;2024-03-02T02:16:20;97369.59;;;5.64;83.74
48622;BME280;34421;48.944;9.460;2024-03-02T02:18:45;97373.44;;;5.62;83.87
48622;BME280;34421;48.944;9.460;2024-03-02T02:21:11;97374.47;;;5.61;83.58
48622;BME280;34421;48.944;9.460;2024-03-02T02:23:36;97365.13;;;5.58;83.09
48622;BME280;34421;48.944;9.460;2024-03-02T02:26:02;97362.72;;;5.57;82.26
48622;BME280;34421;48.944;9.460;2024-03-02T02:28:28;97370.81;;;5.55;82.66
48622;BME280;34421;48.944;9.460;2024-03-02T02:30:54;97367.56;;;5.53;82.96
48622;BME280;34421;48.944;9.460;2024-03-02T02:33:21;97368.81;;;5.51;82.79
48622;BME280;34421;48.944;9.460;2024-03-02T02:35:46;97355.81;;;5.49;83.42
48622;BME280;34421;48.944;9.460;2024-03-02T02:38:12;97357.84;;;5.47;83.48
48622;BME280;34421;48.944;9.460;2024-03-02T02:40:37;97351.34;;;5.43;82.15
48622;BME280;34421;48.944;9.460;2024-03-02T02:43:02;97352.56;;;5.40;83.21
48622;BME280;34421;48.944;9.460;2024-03-02T02:45:28;97350.16;;;5.39;82.92
48622;BME280;34421;48.944;9.460;2024-03-02T02:47:53;97346.88;;;5.37;83.41
48622;BME280;34421;48.944;9.460;2024-03-02T02:50:18;97351.38;;;5.36;82.45
48622;BME280;34421;48.944;9.460;2024-03-02T02:52:44;97346.50;;;5.33;82.83
48622;BME280;34421;48.944;9.460;2024-03-02T02:55:11;97342.44;;;5.31;81.97
48622;BME280;34421;48.944;9.460;2024-03-02T02:57:38;97341.81;;;5.29;82.60
48622;BME280;34421;48.944;9.460;2024-03-02T03:00:12;97334.91;;;5.28;82.37
48622;BME280;34421;48.944;9.460;2024-03-02T03:02:43;97339.59;;;5.19;82.47
48622;BME280;34421;48.944;9.460;2024-03-02T03:05:11;97344.47;;;5.15;82.67
48622;BME280;34421;48.944;9.460;2024-03-02T03:07:36;97337.53;;;5.14;83.04
48622;BME280;34421;48.944;9.460;2024-03-02T03:10:03;97336.75;;;5.14;81.57
48622;BME280;34421;48.944;9.460;2024-03-02T03:12:30;97346.91;;;5.10;82.66
48622;BME280;34421;48.944;9.460;2024-03-02T03:14:56;97344.84;;;5.06;83.12
48622;BME280;34421;48.944;9.460;2024-03-02T03:17:21;97346.50;;;5.07;82.85
48622;BME280;34421;48.944;9.460;2024-03-02T03:19:47;97349.31;;;5.05;82.26
48622;BME280;34421;48.944;9.460;2024-03-02T03:22:12;97340.81;;;5.03;81.94
48622;BME280;34421;48.944;9.460;2024-03-02T03:24:38;97352.59;;;5.00;82.42
48622;BME280;34421;48.944;9.460;2024-03-02T03:27:03;97354.19;;;5.01;82.54
48622;BME280;34421;48.944;9.460;2024-03-02T03:29:29;97351.78;;;5.00;83.31
48622;BME280;34421;48.944;9.460;2024-03-02T03:31:54;97351.16;;;4.98;82.25
48622;BME280;34421;48.944;9.460;2024-03-02T03:34:19;97354.19;;;4.88;82.65
48622;BME280;34421;48.944;9.460;2024-03-02T03:36:45;97349.72;;;4.82;82.45
48622;BME280;34421;48.944;9.460;2024-03-02T03:39:10;97356.00;;;4.74;83.44
48622;BME280;34421;48.944;9.460;2024-03-02T03:41:35;97354.56;;;4.78;82.49
48622;BME280;34421;48.944;9.460;2024-03-02T03:44:01;97349.09;;;4.73;83.49
48622;BME280;34421;48.944;9.460;2024-03-02T03:46:26;97348.88;;;4.68;83.74
48622;BME280;34421;48.944;9.460;2024-03-02T03:48:51;97356.00;;;4.68;84.11
48622;BME280;34421;48.944;9.460;2024-03-02T03:51:16;97351.91;;;4.65;84.25
48622;BME280;34421;48.944;9.460;2024-03-02T03:53:42;97355.38;;;4.66;84.30
48622;BME280;34421;48.944;9.460;2024-03-02T03:56:07;97355.13;;;4.61;83.68
48622;BME280;34421;48.944;9.460;2024-03-02T03:58:32;97346.19;;;4.55;85.45
48622;BME280;34421;48.944;9.460;2024-03-02T04:00:58;97348.84;;;4.55;84.92
48622;BME280;34421;48.944;9.460;2024-03-02T04:03:23;97350.88;;;4.53;85.11
48622;BME280;34421;48.944;9.460;2024-03-02T04:05:49;97340.75;;;4.50;84.60
48622;BME280;34421;48.944;9.460;2024-03-02T04:08:15;97346.00;;;4.50;85.07
48622;BME280;34421;48.944;9.460;2024-03-02T04:10:40;97353.75;;;4.58;85.78
48622;BME280;34421;48.944;9.460;2024-03-02T04:13:07;97354.16;;;4.62;84.59
48622;BME280;34421;48.944;9.460;2024-03-02T04:15:32;97351.13;;;4.65;84.25
48622;BME280;34421;48.944;9.460;2024-03-02T04:17:57;97350.09;;;4.66;84.27
48622;BME280;34421;48.944;9.460;2024-03-02T04:20:23;97353.13;;;4.63;84.62
48622;BME280;34421;48.944;9.460;2024-03-02T04:22:48;97348.66;;;4.63;85.10
48622;BME280;34421;48.944;9.460;2024-03-02T04:25:13;97351.69;;;4.60;85.22
48622;BME280;34421;48.944;9.460;2024-03-02T04:27:39;97349.47;;;4.57;84.53
48622;BME280;34421;48.944;9.460;2024-03-02T04:30:05;97351.47;;;4.55;85.57
48622;BME280;34421;48.944;9.460;2024-03-02T04:32:30;97351.88;;;4.52;85.82
48622;BME280;34421;48.944;9.460;2024-03-02T04:34:56;97358.38;;;4.49;85.03
48622;BME280;34421;48.944;9.460;2024-03-02T04:37:22;97353.69;;;4.51;84.81
48622;BME280;34421;48.944;9.460;2024-03-02T04:39:47;97351.28;;;4.50;86.14
48622;BME280;34421;48.944;9.460;2024-03-02T04:42:12;97352.09;;;4.50;85.96
48622;BME280;34421;48.944;9.460;2024-03-02T04:44:38;97351.88;;;4.52;86.42
48622;BME280;34421;48.944;9.460;2024-03-02T04:47:04;97350.47;;;4.56;85.67
48622;BME280;34421;48.944;9.460;2024-03-02T04:49:29;97348.84;;;4.55;85.66
48622;BME280;34421;48.944;9.460;2024-03-02T04:51:55;97360.81;;;4.51;85.38
48622;BME280;34421;48.944;9.460;2024-03-02T04:54:21;97363.03;;;4.47;85.25
48622;BME280;34421;48.944;9.460;2024-03-02T04:56:47;97358.97;;;4.45;86.65
48622;BME280;34421;48.944;9.460;2024-03-02T04:59:16;97359.34;;;4.42;85.67
48622;BME280;34421;48.944;9.460;2024-03-02T05:01:42;97359.75;;;4.39;86.82
48622;BME280;34421;48.944;9.460;2024-03-02T05:04:08;97362.16;;;4.33;87.09
48622;BME280;34421;48.944;9.460;2024-03-02T05:06:33;97358.94;;;4.31;86.13
48622;BME280;34421;48.944;9.460;2024-03-02T05:08:58;97352.81;;;4.31;87.21
48622;BME280;34421;48.944;9.460;2024-03-02T05:11:24;97350.63;;;4.34;86.93
48622;BME280;34421;48.944;9.460;2024-03-02T05:14:15;97354.88;;;4.36;86.73
48622;BME280;34421;48.944;9.460;2024-03-02T05:16:40;97354.50;;;4.39;86.46
48622;BME280;34421;48.944;9.460;2024-03-02T05:19:07;97355.13;;;4.41;86.25
48622;BME280;34421;48.944;9.460;2024-03-02T05:21:33;97352.47;;;4.41;85.51
48622;BME280;34421;48.944;9.460;2024-03-02T05:23:59;97358.94;;;4.38;84.87
48622;BME280;34421;48.944;9.460;2024-03-02T05:26:24;97354.88;;;4.36;86.61
48622;BME280;34421;48.944;9.460;2024-03-02T05:28:49;97360.34;;;4.34;85.57
48622;BME280;34421;48.944;9.460;2024-03-02T05:31:15;97358.09;;;4.31;85.14
48622;BME280;34421;48.944;9.460;2024-03-02T05:33:42;97359.28;;;4.22;86.25
48622;BME280;34421;48.944;9.460;2024-03-02T05:36:07;97356.88;;;4.20;85.53
48622;BME280;34421;48.944;9.460;2024-03-02T05:38:36;97356.44;;;4.17;86.59
48622;BME280;34421;48.944;9.460;2024-03-02T05:41:01;97357.84;;;4.19;86.59
48622;BME280;34421;48.944;9.460;2024-03-02T05:43:27;97353.19;;;4.21;86.61
48622;BME280;34421;48.944;9.460;2024-03-02T05:45:52;97358.88;;;4.18;86.24
48622;BME280;34421;48.944;9.460;2024-03-02T05:48:17;97344.88;;;4.18;86.03
48622;BME280;34421;48.944;9.460;2024-03-02T05:50:43;97362.53;;;4.17;85.25
48622;BME280;34421;48.944;9.460;2024-03-02T05:53:08;97357.25;;;4.17;85.66
48622;BME280;34421;48.944;9.460;2024-03-02T05:55:33;97361.50;;;4.18;86.62
48622;BME280;34421;48.944;9.460;2024-03-02T05:57:59;97357.25;;;4.17;85.38
48622;BME280;34421;48.944;9.460;2024-03-02T06:00:42;97365.34;;;4.16;84.88
48622;BME280;34421;48.944;9.460;2024-03-02T06:03:07;97364.53;;;4.15;85.38
48622;BME280;34421;48.944;9.460;2024-03-02T06:05:34;97368.19;;;4.14;84.63
48622;BME280;34421;48.944;9.460;2024-03-02T06:07:59;97362.91;;;4.14;84.75
48622;BME280;34421;48.944;9.460;2024-03-02T06:10:25;97365.34;;;4.16;84.58
48622;BME280;34421;48.944;9.460;2024-03-02T06:12:50;97368.78;;;4.16;85.71
48622;BME280;34421;48.944;9.460;2024-03-02T06:15:15;97374.44;;;4.13;84.57
48622;BME280;34421;48.944;9.460;2024-03-02T06:17:42;97372.25;;;4.17;86.03
48622;BME280;34421;48.944;9.460;2024-03-02T06:20:07;97375.09;;;4.22;85.59
48622;BME280;34421;48.944;9.460;2024-03-02T06:22:33;97377.34;;;4.25;84.70
48622;BME280;34421;48.944;9.460;2024-03-02T06:24:58;97381.22;;;4.29;84.79
48622;BME280;34421;48.944;9.460;2024-03-02T06:27:24;97386.91;;;4.32;84.11
48622;BME280;34421;48.944;9.460;2024-03-02T06:29:49;97380.63;;;4.33;84.48
48622;BME280;34421;48.944;9.460;2024-03-02T06:32:14;97384.91;;;4.34;84.72
48622;BME280;34421;48.944;9.460;2024-03-02T06:34:40;97388.13;;;4.37;84.67
48622;BME280;34421;48.944;9.460;2024-03-02T06:37:05;97391.63;;;4.44;84.50
48622;BME280;34421;48.944;9.460;2024-03-02T06:39:30;97391.81;;;4.49;83.58
48622;BME280;34421;48.944;9.460;2024-03-02T06:41:56;97399.94;;;4.54;84.72
48622;BME280;34421;48.944;9.460;2024-03-02T06:44:21;97399.56;;;4.57;84.12
48622;BME280;34421;48.944;9.460;2024-03-02T06:46:46;97392.25;;;4.59;83.12
48622;BME280;34421;48.944;9.460;2024-03-02T06:49:12;97397.53;;;4.59;83.12
48622;BME280;34421;48.944;9.460;2024-03-02T06:51:37;97398.34;;;4.66;83.21
48622;BME280;34421;48.944;9.460;2024-03-02T06:54:02;97396.34;;;4.68;82.99
48622;BME280;34421;48.944;9.460;2024-03-02T06:56:28;97388.25;;;4.76;83.11
48622;BME280;34421;48.944;9.460;2024-03-02T06:58:53;97394.56;;;4.89;83.20
48622;BME280;34421;48.944;9.460;2024-03-02T07:01:19;97388.72;;;5.00;83.19
48622;BME280;34421;48.944;9.460;2024-03-02T07:03:45;97386.47;;;5.03;83.12
48622;BME280;34421;48.944;9.460;2024-03-02T07:06:10;97383.66;;;5.18;83.09
48622;BME280;34421;48.944;9.460;2024-03-02T07:08:36;97391.56;;;5.32;82.16
48622;BME280;34421;48.944;9.460;2024-03-02T07:11:01;97378.16;;;5.40;81.94
48622;BME280;34421;48.944;9.460;2024-03-02T07:13:26;97378.34;;;5.52;82.58
48622;BME280;34421;48.944;9.460;2024-03-02T07:15:52;97381.81;;;5.65;82.24
48622;BME280;34421;48.944;9.460;2024-03-02T07:18:37;97388.25;;;5.83;81.13
48622;BME280;34421;48.944;9.460;2024-03-02T07:21:09;97380.91;;;5.91;81.40
48622;BME280;34421;48.944;9.460;2024-03-02T07:23:35;97386.22;;;6.05;80.85
48622;BME280;34421;48.944;9.460;2024-03-02T07:26:01;97385.78;;;6.14;80.49
48622;BME280;34421;48.944;9.460;2024-03-02T07:28:27;97390.41;;;6.26;80.93
48622;BME280;34421;48.944;9.460;2024-03-02T07:31:03;97387.06;;;6.50;80.23
48622;BME280;34421;48.944;9.460;2024-03-02T07:33:30;97382.16;;;6.54;79.91
48622;BME280;34421;48.944;9.460;2024-03-02T07:35:56;97368.81;;;6.74;79.60
48622;BME280;34421;48.944;9.460;2024-03-02T07:38:22;97377.41;;;7.01;79.22
48622;BME280;34421;48.944;9.460;2024-03-02T07:40:48;97373.38;;;7.23;78.75
48622;BME280;34421;48.944;9.460;2024-03-02T07:43:16;97379.69;;;7.47;78.28
48622;BME280;34421;48.944;9.460;2024-03-02T07:45:42;97382.03;;;7.62;77.61
48622;BME280;34421;48.944;9.460;2024-03-02T07:48:07;97388.59;;;7.96;77.14
48622;BME280;34421;48.944;9.460;2024-03-02T07:50:32;97391.63;;;8.00;76.72
48622;BME280;34421;48.944;9.460;2024-03-02T07:53:03;97397.53;;;8.02;76.76
48622;BME280;34421;48.944;9.460;2024-03-02T07:55:29;97399.06;;;8.28;76.88
48622;BME280;34421;48.944;9.460;2024-03-02T07:57:54;97398.19;;;8.53;76.27
48622;BME280;34421;48.944;9.460;2024-03-02T08:00:20;97408.81;;;8.83;75.78
48622;BME280;34421;48.944;9.460;2024-03-02T08:02:45;97410.63;;;9.01;74.12
48622;BME280;34421;48.944;9.460;2024-03-02T08:05:11;97411.88;;;9.28;73.53
48622;BME280;34421;48.944;9.460;2024-03-02T08:07:36;97403.94;;;9.52;72.26
48622;BME280;34421;48.944;9.460;2024-03-02T08:10:02;97404.75;;;9.64;71.67
48622;BME280;34421;48.944;9.460;2024-03-02T08:12:27;97403.22;;;9.45;71.84
48622;BME280;34421;48.944;9.460;2024-03-02T08:14:52;97402.78;;;9.71;72.22
48622;BME280;34421;48.944;9.460;2024-03-02T08:17:17;97400.59;;;9.92;72.16
48622;BME280;34421;48.944;9.460;2024-03-02T08:19:43;97399.09;;;9.96;72.41
48622;BME280;34421;48.944;9.460;2024-03-02T08:22:09;97406.97;;;9.91;72.70
48622;BME280;34421;48.944;9.460;2024-03-02T08:24:35;97402.22;;;9.69;72.91
48622;BME280;34421;48.944;9.460;2024-03-02T08:27:03;97404.41;;;9.49;73.38
48622;BME280;34421;48.944;9.460;2024-03-02T08:29:28;97396.19;;;9.39;73.10
48622;BME280;34421;48.944;9.460;2024-03-02T08:31:54;97405.44;;;9.48;73.66
48622;BME280;34421;48.944;9.460;2024-03-02T08:34:19;97388.69;;;9.82;73.87
48622;BME280;34421;48.944;9.460;2024-03-02T08:36:46;97391.41;;;10.23;72.48
48622;BME280;34421;48.944;9.460;2024-03-02T08:39:11;97387.47;;;10.49;73.45
48622;BME280;34421;48.944;9.460;2024-03-02T08:41:41;97382.00;;;10.56;72.40
48622;BME280;34421;48.944;9.460;2024-03-02T08:44:08;97385.41;;;10.80;73.01
48622;BME280;34421;48.944;9.460;2024-03-02T08:46:33;97376.84;;;10.94;70.50
48622;BME280;34421;48.944;9.460;2024-03-02T08:48:59;97380.03;;;11.08;69.42
48622;BME280;34421;48.944;9.460;2024-03-02T08:51:24;97373.47;;;11.28;69.89
48622;BME280;34421;48.944;9.460;2024-03-02T08:53:50;97374.81;;;11.47;68.52
48622;BME280;34421;48.944;9.460;2024-03-02T08:56:15;97373.66;;;11.77;69.10
48622;BME280;34421;48.944;9.460;2024-03-02T08:58:41;97364.81;;;11.88;69.04
48622;BME280;34421;48.944;9.460;2024-03-02T09:01:06;97367.31;;;12.17;67.16
48622;BME280;34421;48.944;9.460;2024-03-02T09:03:33;97365.75;;;12.21;66.64
48622;BME280;34421;48.944;9.460;2024-03-02T09:06:00;97363.13;;;12.04;67.76
48622;BME280;34421;48.944;9.460;2024-03-02T09:08:25;97365.75;;;11.99;67.03
48622;BME280;34421;48.944;9.460;2024-03-02T09:10:50;97366.59;;;12.04;67.59
48622;BME280;34421;48.944;9.460;2024-03-02T09:13:16;97366.63;;;12.48;67.18
48622;BME280;34421;48.944;9.460;2024-03-02T09:15:41;97364.69;;;12.93;66.41
48622;BME280;34421;48.944;9.460;2024-03-02T09:18:07;97358.06;;;13.97;65.19
48622;BME280;34421;48.944;9.460;2024-03-02T09:20:32;97353.41;;;15.18;61.54
48622;BME280;34421;48.944;9.460;2024-03-02T09:22:58;97356.06;;;15.85;59.64
48622;BME280;34421;48.944;9.460;2024-03-02T09:25:23;97354.16;;;16.66;57.42
48622;BME280;34421;48.944;9.460;2024-03-02T09:27:48;97347.13;;;16.80;56.99
48622;BME280;34421;48.944;9.460;2024-03-02T09:30:14;97349.72;;;17.69;54.83
48622;BME280;34421;48.944;9.460;2024-03-02T09:32:39;97351.94;;;19.39;51.26
48622;BME280;34421;48.944;9.460;2024-03-02T09:35:05;97337.41;;;21.42;48.25
48622;BME280;34421;48.944;9.460;2024-03-02T09:37:30;97335.44;;;23.62;44.62
48622;BME280;34421;48.944;9.460;2024-03-02T09:39:56;97335.03;;;25.72;40.57
48622;BME280;34421;48.944;9.460;2024-03-02T09:42:21;97334.88;;;26.13;34.81
48622;BME280;34421;48.944;9.460;2024-03-02T09:44:47;97334.38;;;26.57;33.00
48622;BME280;34421;48.944;9.460;2024-03-02T09:47:13;97330.31;;;28.04;30.56
48622;BME280;34421;48.944;9.460;2024-03-02T09:49:39;97324.47;;;29.62;28.05
48622;BME280;34421;48.944;9.460;2024-03-02T09:52:05;97325.94;;;30.75;27.38
48622;BME280;34421;48.944;9.460;2024-03-02T09:54:32;97330.06;;;31.48;25.66
48622;BME280;34421;48.944;9.460;2024-03-02T09:56:57;97324.53;;;31.82;24.23
48622;BME280;34421;48.944;9.460;2024-03-02T09:59:22;97321.81;;;32.30;23.94
48622;BME280;34421;48.944;9.460;2024-03-02T10:02:01;97324.78;;;33.14;23.84
48622;BME280;34421;48.944;9.460;2024-03-02T10:04:28;97330.94;;;32.93;24.31
48622;BME280;34421;48.944;9.460;2024-03-02T10:07:13;97324.03;;;33.31;21.53
48622;BME280;34421;48.944;9.460;2024-03-02T10:09:39;97319.47;;;33.96;20.90
48622;BME280;34421;48.944;9.460;2024-03-02T10:12:06;97315.19;;;34.56;21.00
48622;BME280;34421;48.944;9.460;2024-03-02T10:14:32;97321.03;;;34.83;20.58
48622;BME280;34421;48.944;9.460;2024-03-02T10:17:06;97311.94;;;35.04;20.72
48622;BME280;34421;48.944;9.460;2024-03-02T10:19:33;97313.50;;;35.02;19.90
48622;BME280;34421;48.944;9.460;2024-03-02T10:22:00;97321.13;;;34.33;20.66
48622;BME280;34421;48.944;9.460;2024-03-02T10:24:26;97318.31;;;34.65;19.51
48622;BME280;34421;48.944;9.460;2024-03-02T10:26:52;97313.19;;;34.35;18.80
48622;BME280;34421;48.944;9.460;2024-03-02T10:29:18;97308.84;;;34.52;18.30
48622;BME280;34421;48.944;9.460;2024-03-02T10:31:44;97314.00;;;34.39;18.34
48622;BME280;34421;48.944;9.460;2024-03-02T10:34:13;97308.44;;;34.50;18.63
48622;BME280;34421;48.944;9.460;2024-03-02T10:36:43;97314.41;;;34.09;18.35
48622;BME280;34421;48.944;9.460;2024-03-02T10:39:10;97316.00;;;34.03;18.11
48622;BME280;34421;48.944;9.460;2024-03-02T10:41:37;97315.59;;;34.22;18.41
48622;BME280;34421;48.944;9.460;2024-03-02T10:44:04;97312.41;;;34.20;18.63
48622;BME280;34421;48.944;9.460;2024-03-02T10:46:30;97312.00;;;34.47;18.50
48622;BME280;34421;48.944;9.460;2024-03-02T10:48:57;97314.41;;;34.16;17.91
48622;BME280;34421;48.944;9.460;2024-03-02T10:51:28;97304.53;;;34.37;18.05
48622;BME280;34421;48.944;9.460;2024-03-02T10:53:57;97298.94;;;34.80;18.16
48622;BME280;34421;48.944;9.460;2024-03-02T10:56:28;97288.13;;;35.28;17.57
48622;BME280;34421;48.944;9.460;2024-03-02T10:59:17;97285.22;;;35.53;16.92
48622;BME280;34421;48.944;9.460;2024-03-02T11:01:48;97281.16;;;35.72;17.06
48622;BME280;34421;48.944;9.460;2024-03-02T11:04:17;97276.00;;;35.74;16.63
48622;BME280;34421;48.944;9.460;2024-03-02T11:06:49;97272.59;;;35.52;16.86
48622;BME280;34421;48.944;9.460;2024-03-02T11:09:16;97266.94;;;35.74;16.16
48622;BME280;34421;48.944;9.460;2024-03-02T11:11:43;97259.94;;;35.48;15.61
48622;BME280;34421;48.944;9.460;2024-03-02T11:14:14;97258.97;;;35.02;16.56
48622;BME280;34421;48.944;9.460;2024-03-02T11:16:42;97262.13;;;35.11;16.74
48622;BME280;34421;48.944;9.460;2024-03-02T11:19:14;97258.50;;;35.25;16.80
48622;BME280;34421;48.944;9.460;2024-03-02T11:21:40;97256.88;;;35.35;16.95
48622;BME280;34421;48.944;9.460;2024-03-02T11:26:46;97248.31;;;34.97;16.55
48622;BME280;34421;48.944;9.460;2024-03-02T11:32:05;97238.28;;;35.35;16.88
48622;BME280;34421;48.944;9.460;2024-03-02T11:34:32;97237.00;;;35.51;16.49
48622;BME280;34421;48.944;9.460;2024-03-02T11:36:59;97230.28;;;35.48;16.79
48622;BME280;34421;48.944;9.460;2024-03-02T11:39:25;97237.47;;;34.18;17.46
48622;BME280;34421;48.944;9.460;2024-03-02T11:41:51;97231.94;;;33.72;17.45
48622;BME280;34421;48.944;9.460;2024-03-02T11:44:17;97233.34;;;33.05;17.73
48622;BME280;34421;48.944;9.460;2024-03-02T11:46:45;97218.28;;;32.91;18.07
48622;BME280;34421;48.944;9.460;2024-03-02T11:49:14;97216.09;;;33.29;17.46
48622;BME280;34421;48.944;9.460;2024-03-02T11:51:51;97205.91;;;33.58;17.42
48622;BME280;34421;48.944;9.460;2024-03-02T11:54:18;97203.88;;;33.45;17.33
48622;BME280;34421;48.944;9.460;2024-03-02T11:56:43;97204.56;;;31.74;18.10
48622;BME280;34421;48.944;9.460;2024-03-02T11:59:09;97206.56;;;29.00;20.26
48622;BME280;34421;48.944;9.460;2024-03-02T12:01:35;97193.69;;;27.03;22.24
48622;BME280;34421;48.944;9.460;2024-03-02T12:04:01;97201.66;;;25.54;23.75
48622;BME280;34421;48.944;9.460;2024-03-02T12:06:27;97193.25;;;24.39;25.67
48622;BME280;34421;48.944;9.460;2024-03-02T12:08:53;97188.53;;;23.29;26.15
48622;BME280;34421;48.944;9.460;2024-03-02T12:11:20;97190.22;;;22.52;27.34
48622;BME280;34421;48.944;9.460;2024-03-02T12:13:52;97188.00;;;21.88;28.66
48622;BME280;34421;48.944;9.460;2024-03-02T12:16:24;97185.22;;;21.31;29.16
48622;BME280;34421;48.944;9.460;2024-03-02T12:18:49;97177.47;;;20.84;30.85
48622;BME280;34421;48.944;9.460;2024-03-02T12:21:14;97179.50;;;20.56;31.75
48622;BME280;34421;48.944;9.460;2024-03-02T12:23:40;97181.28;;;20.24;31.89
48622;BME280;34421;48.944;9.460;2024-03-02T12:26:06;97177.63;;;19.93;31.80
48622;BME280;34421;48.944;9.460;2024-03-02T12:28:32;97166.91;;;19.60;32.48
48622;BME280;34421;48.944;9.460;2024-03-02T12:30:58;97169.94;;;19.31;33.33
48622;BME280;34421;48.944;9.460;2024-03-02T12:33:24;97167.00;;;19.13;33.24
48622;BME280;34421;48.944;9.460;2024-03-02T12:35:49;97162.66;;;18.99;33.44
48622;BME280;34421;48.944;9.460;2024-03-02T12:38:15;97161.06;;;18.65;34.60
48622;BME280;34421;48.944;9.460;2024-03-02T12:40:40;97166.03;;;18.39;34.79
48622;BME280;34421;48.944;9.460;2024-03-02T12:43:06;97161.56;;;18.29;34.73
48622;BME280;34421;48.944;9.460;2024-03-02T12:45:32;97154.66;;;18.23;34.85
48622;BME280;34421;48.944;9.460;2024-03-02T12:47:57;97147.16;;;18.20;34.93
48622;BME280;34421;48.944;9.460;2024-03-02T12:50:25;97150.00;;;18.29;35.38
48622;BME280;34421;48.944;9.460;2024-03-02T12:52:54;97145.19;;;18.26;35.70
48622;BME280;34421;48.944;9.460;2024-03-02T12:55:21;97142.03;;;18.24;35.61
48622;BME280;34421;48.944;9.460;2024-03-02T12:57:51;97145.41;;;18.29;36.46
48622;BME280;34421;48.944;9.460;2024-03-02T13:00:18;97137.22;;;18.20;36.48
48622;BME280;34421;48.944;9.460;2024-03-02T13:02:46;97131.94;;;18.29;35.98
48622;BME280;34421;48.944;9.460;2024-03-02T13:05:11;97134.09;;;18.32;35.42
48622;BME280;34421;48.944;9.460;2024-03-02T13:07:37;97143.03;;;18.28;35.52
48622;BME280;34421;48.944;9.460;2024-03-02T13:10:03;97141.72;;;18.25;36.41